KOOA/OOA METAR and TAF weather

Enter ICAO airport designator
Station Type Date Time Source
KOOA METAR 2018/12/10 13:35 UTC NOAA

KOOA 101335Z AUTO 00000KT 3SM BR CLR M10/M11 A3030 RMK AO2 T10991107


Station Type Date Time Source
KOOA Decoded METAR 2018/12/10 13:35 UTC NOAA

Oskaloosa, Oskaloosa Municipal Airport, IA, United States (KOOA) 41-13-34N 092-29-37W
Dec 10, 2018 - 08:35 AM EST / 2018.12.10 1335 UTC
Wind: Calm:0
Visibility: 3 mile(s):0
Sky conditions: clear
Weather: mist
Temperature: 14.2 F (-9.9 C)
Dew Point: 12.7 F (-10.7 C)
Relative Humidity: 93%
Pressure (altimeter): 30.3 in. Hg (1026 hPa)
ob: KOOA 101335Z AUTO 00000KT 3SM BR CLR M10/M11 A3030 RMK AO2 T10991107
cycle: 13

Station Type Date Time Source
KOOA TAF UTC NOAA

Error!


Example: see airport list